createdAt,value
2023-04-16T00:00:22.713Z,278.38
2023-04-16T00:01:18.142Z,277.91
2023-04-16T00:02:13.326Z,278.38
2023-04-16T00:03:08.416Z,279.09
2023-04-16T00:04:03.844Z,280.52
2023-04-16T00:04:58.544Z,279.57
2023-04-16T00:05:53.714Z,278.86
2023-04-16T00:06:48.795Z,278.38
2023-04-16T00:07:43.895Z,273.74
2023-04-16T00:08:39.218Z,270.13
2023-04-16T00:09:34.247Z,268.80
2023-04-16T00:10:29.434Z,267.27
2023-04-16T00:11:24.601Z,264.90
2023-04-16T00:12:19.770Z,260.69
2023-04-16T00:13:15.176Z,256.21
2023-04-16T00:14:10.041Z,255.41
2023-04-16T00:15:05.177Z,254.23
2023-04-16T00:16:00.367Z,254.42
2023-04-16T00:16:55.549Z,255.01
2023-04-16T00:17:50.858Z,259.66
2023-04-16T00:18:46.000Z,261.10
2023-04-16T00:19:41.093Z,263.83
2023-04-16T00:20:36.208Z,269.69
2023-04-16T00:21:31.401Z,271.47
2023-04-16T00:22:26.524Z,275.58
2023-04-16T00:23:21.720Z,271.02
2023-04-16T00:24:16.897Z,267.71
2023-04-16T00:25:12.047Z,271.02
2023-04-16T00:26:07.150Z,273.51
2023-04-16T00:27:02.414Z,273.51
2023-04-16T00:27:57.406Z,273.74
2023-04-16T00:28:52.714Z,274.42
2023-04-16T00:29:47.765Z,273.74
2023-04-16T00:30:42.943Z,271.92
2023-04-16T00:31:38.112Z,271.02
2023-04-16T00:32:33.263Z,270.13
2023-04-16T00:33:28.424Z,269.47
2023-04-16T00:34:23.727Z,269.02
2023-04-16T00:35:18.784Z,269.24
2023-04-16T00:36:13.954Z,271.02
2023-04-16T00:37:09.147Z,269.91
2023-04-16T00:38:04.322Z,272.37
2023-04-16T00:38:59.786Z,273.28
2023-04-16T00:39:54.697Z,273.97
2023-04-16T00:40:49.836Z,274.42
2023-04-16T00:41:45.019Z,276.74
2023-04-16T00:42:40.158Z,277.44
2023-04-16T00:43:35.352Z,277.21
2023-04-16T00:44:30.363Z,276.74
2023-04-16T00:45:25.523Z,276.27
2023-04-16T00:46:20.668Z,274.20
2023-04-16T00:47:15.882Z,275.58
2023-04-16T00:48:10.984Z,271.47
2023-04-16T00:49:06.501Z,269.47
2023-04-16T00:50:01.253Z,261.52
2023-04-16T00:50:56.959Z,264.26
2023-04-16T00:51:51.567Z,261.31
2023-04-16T00:52:46.741Z,259.66
2023-04-16T00:53:42.057Z,259.66
2023-04-16T00:54:37.147Z,260.27
2023-04-16T00:55:32.157Z,262.57
2023-04-16T00:56:27.361Z,261.52
2023-04-16T00:57:22.382Z,262.78
2023-04-16T00:58:17.542Z,264.05
2023-04-16T00:59:12.857Z,262.99
2023-04-16T01:00:07.920Z,259.45
2023-04-16T01:01:03.036Z,257.82
2023-04-16T01:01:58.347Z,256.61
2023-04-16T01:02:53.417Z,255.61
2023-04-16T01:03:48.766Z,256.01
2023-04-16T01:04:43.545Z,255.61
2023-04-16T01:05:38.700Z,255.81
2023-04-16T01:06:33.877Z,256.81
2023-04-16T01:07:29.043Z,256.81
2023-04-16T01:08:24.142Z,254.62
2023-04-16T01:09:19.451Z,256.01
2023-04-16T01:10:14.550Z,255.81
2023-04-16T01:11:09.696Z,255.81
2023-04-16T01:12:05.008Z,255.61
2023-04-16T01:13:00.031Z,253.64
2023-04-16T01:13:55.193Z,252.66
2023-04-16T01:14:50.362Z,251.69
2023-04-16T01:15:45.587Z,253.24
2023-04-16T01:16:40.611Z,252.27
2023-04-16T01:17:35.783Z,251.30
2023-04-16T01:18:31.098Z,251.88
2023-04-16T01:19:26.239Z,250.35
2023-04-16T01:20:21.257Z,249.96
2023-04-16T01:21:16.373Z,247.70
2023-04-16T01:22:11.636Z,246.21
2023-04-16T01:23:06.826Z,245.84
2023-04-16T01:24:01.856Z,243.29
2023-04-16T01:24:57.015Z,244.56
2023-04-16T01:25:52.207Z,245.48
2023-04-16T01:26:47.327Z,247.33
2023-04-16T01:27:42.568Z,248.64
2023-04-16T01:28:37.692Z,249.39
2023-04-16T01:29:32.996Z,250.54
2023-04-16T01:30:28.015Z,252.66
2023-04-16T01:31:23.252Z,254.03
2023-04-16T01:32:18.283Z,253.64
2023-04-16T01:33:13.412Z,256.21
2023-04-16T01:34:08.710Z,255.41
2023-04-16T01:35:03.796Z,257.01
2023-04-16T01:35:58.911Z,257.82
2023-04-16T01:36:54.078Z,258.84
2023-04-16T01:37:49.236Z,255.81
2023-04-16T01:38:44.450Z,255.41
2023-04-16T01:39:39.710Z,257.21
2023-04-16T01:40:34.771Z,256.21
2023-04-16T01:41:29.943Z,255.81
2023-04-16T01:42:25.132Z,254.42
2023-04-16T01:43:20.285Z,254.82
2023-04-16T01:44:15.470Z,254.62
2023-04-16T01:45:10.739Z,253.83
2023-04-16T01:46:05.774Z,252.66
2023-04-16T01:47:00.962Z,252.08
2023-04-16T01:47:56.158Z,251.88
2023-04-16T01:48:51.385Z,250.92
2023-04-16T01:49:46.576Z,249.58
2023-04-16T01:50:41.712Z,249.96
2023-04-16T01:51:36.697Z,252.85
2023-04-16T01:52:31.871Z,251.50
2023-04-16T01:53:27.025Z,249.58
2023-04-16T01:54:22.218Z,251.11
2023-04-16T01:55:17.403Z,246.95
2023-04-16T01:56:12.543Z,245.66
2023-04-16T01:57:07.727Z,244.56
2023-04-16T01:58:02.857Z,244.56
2023-04-16T01:58:58.038Z,245.84
2023-04-16T01:59:53.481Z,246.58
2023-04-16T02:00:48.464Z,246.40
2023-04-16T02:01:43.627Z,246.95
2023-04-16T02:02:38.902Z,248.07
2023-04-16T02:03:34.023Z,247.51
2023-04-16T02:04:29.067Z,248.45
2023-04-16T02:05:24.227Z,250.35
2023-04-16T02:06:19.434Z,251.50
2023-04-16T02:07:14.542Z,253.05
2023-04-16T02:08:09.751Z,252.27
2023-04-16T02:09:05.087Z,250.35
2023-04-16T02:10:00.293Z,250.15
2023-04-16T02:10:55.287Z,247.70
2023-04-16T02:11:50.480Z,247.70
2023-04-16T02:12:45.522Z,246.77
2023-04-16T02:13:40.686Z,248.07
2023-04-16T02:14:35.958Z,249.39
2023-04-16T02:15:31.023Z,247.89
2023-04-16T02:16:26.477Z,247.14
2023-04-16T02:17:21.484Z,244.74
2023-04-16T02:18:16.513Z,246.21
2023-04-16T02:19:11.715Z,244.93
2023-04-16T02:20:06.958Z,245.66
2023-04-16T02:21:02.013Z,246.21
2023-04-16T02:21:57.168Z,243.83
2023-04-16T02:22:52.354Z,244.02
2023-04-16T02:23:47.600Z,243.65
2023-04-16T02:24:42.689Z,243.47
2023-04-16T02:25:37.739Z,241.32
2023-04-16T02:26:32.916Z,244.20
2023-04-16T02:27:28.093Z,244.20
2023-04-16T02:28:23.159Z,244.38
2023-04-16T02:29:18.455Z,244.74
2023-04-16T02:30:13.617Z,246.40
2023-04-16T02:31:08.638Z,247.14
2023-04-16T02:32:03.885Z,248.64
2023-04-16T02:32:58.887Z,251.11
2023-04-16T02:33:54.055Z,251.50
2023-04-16T02:34:49.336Z,250.73
2023-04-16T02:35:44.402Z,251.69
2023-04-16T02:36:39.523Z,251.11
2023-04-16T02:37:34.723Z,248.07
2023-04-16T02:38:29.756Z,249.58
2023-04-16T02:39:24.941Z,249.21
2023-04-16T02:40:20.224Z,247.33
2023-04-16T02:41:15.279Z,245.29
2023-04-16T02:42:10.432Z,244.02
2023-04-16T02:43:05.613Z,243.65
2023-04-16T02:44:00.740Z,242.93
2023-04-16T02:44:55.946Z,242.75
2023-04-16T02:45:50.982Z,242.93
2023-04-16T02:46:46.116Z,242.75
2023-04-16T02:47:41.272Z,241.50
2023-04-16T02:48:36.445Z,241.32
2023-04-16T02:49:31.581Z,240.44
2023-04-16T02:50:26.915Z,240.62
2023-04-16T02:52:50.040Z,215.49
2023-04-16T02:53:43.336Z,218.94
2023-04-16T02:54:38.521Z,222.81
2023-04-16T02:55:33.704Z,227.28
2023-04-16T02:56:28.895Z,229.83
2023-04-16T02:57:24.054Z,231.61
2023-04-16T02:58:19.228Z,232.60
2023-04-16T02:59:14.375Z,233.10
2023-04-16T03:00:09.537Z,232.76
2023-04-16T03:01:04.846Z,233.43
2023-04-16T03:01:59.869Z,233.10
2023-04-16T03:02:55.269Z,230.64
2023-04-16T03:03:50.229Z,231.29
2023-04-16T03:04:45.228Z,231.12
2023-04-16T03:05:40.603Z,231.45
2023-04-16T03:06:35.594Z,230.96
2023-04-16T03:07:30.726Z,230.48
2023-04-16T03:08:25.901Z,229.35
2023-04-16T03:09:21.042Z,223.11
2023-04-16T03:10:16.209Z,220.26
2023-04-16T03:11:11.391Z,222.20
2023-04-16T03:12:06.541Z,222.20
2023-04-16T03:13:01.812Z,224.02
2023-04-16T03:13:56.855Z,223.87
2023-04-16T03:14:52.045Z,225.87
2023-04-16T03:15:47.226Z,226.18
2023-04-16T03:16:42.356Z,226.65
2023-04-16T03:17:37.511Z,225.25
2023-04-16T03:18:32.719Z,226.03
2023-04-16T03:19:27.820Z,225.25
2023-04-16T03:20:23.027Z,224.64
2023-04-16T03:21:18.039Z,224.33
2023-04-16T03:22:13.204Z,225.56
2023-04-16T03:23:08.474Z,226.34
2023-04-16T03:24:03.546Z,226.34
2023-04-16T03:24:58.625Z,225.25
2023-04-16T03:25:53.954Z,222.05
2023-04-16T03:26:48.983Z,220.12
2023-04-16T03:27:44.144Z,218.65
2023-04-16T03:28:39.368Z,218.07
2023-04-16T03:29:34.524Z,218.50
2023-04-16T03:30:29.682Z,218.65
2023-04-16T03:31:24.908Z,218.36
2023-04-16T03:32:20.124Z,218.65
2023-04-16T03:33:15.420Z,217.78
2023-04-16T03:34:10.446Z,217.63
2023-04-16T03:35:05.626Z,218.50
2023-04-16T03:36:00.774Z,218.21
2023-04-16T03:36:55.924Z,217.92
2023-04-16T03:37:51.150Z,218.21
2023-04-16T03:38:46.155Z,217.78
2023-04-16T03:39:41.270Z,215.63
2023-04-16T03:40:36.479Z,206.54
2023-04-16T03:41:31.505Z,200.11
2023-04-16T03:42:26.660Z,198.42
2023-04-16T03:43:21.918Z,201.34
2023-04-16T03:44:16.996Z,206.02
2023-04-16T03:45:12.148Z,209.44
2023-04-16T03:46:07.500Z,213.39
2023-04-16T03:47:02.473Z,215.21
2023-04-16T03:47:57.709Z,217.78
2023-04-16T03:48:52.688Z,218.79
2023-04-16T03:49:47.845Z,221.30
2023-04-16T03:50:43.132Z,222.50
2023-04-16T03:51:38.177Z,223.11
2023-04-16T03:52:33.294Z,224.48
2023-04-16T03:53:28.697Z,223.26
2023-04-16T03:54:23.580Z,221.15
2023-04-16T03:55:18.617Z,220.26
2023-04-16T03:56:13.656Z,220.86
2023-04-16T03:57:08.709Z,219.97
2023-04-16T03:58:03.921Z,220.71
2023-04-16T03:58:58.948Z,221.60
2023-04-16T03:59:53.962Z,221.60
2023-04-16T04:00:49.094Z,223.11
2023-04-16T04:01:44.099Z,222.81
2023-04-16T04:02:39.240Z,222.35
2023-04-16T04:03:34.424Z,222.05
2023-04-16T04:04:29.341Z,222.81
2023-04-16T04:05:24.236Z,223.72
2023-04-16T04:06:19.305Z,224.18
2023-04-16T04:07:14.322Z,224.64
2023-04-16T04:08:09.392Z,223.57
2023-04-16T04:09:04.387Z,222.96
2023-04-16T04:09:59.402Z,222.65
2023-04-16T04:10:54.471Z,221.30
2023-04-16T04:11:49.535Z,220.86
2023-04-16T04:12:44.542Z,220.86
2023-04-16T04:13:39.605Z,219.82
2023-04-16T04:14:34.631Z,218.36
2023-04-16T04:15:29.696Z,217.35
2023-04-16T04:16:24.776Z,218.07
2023-04-16T04:17:20.815Z,217.78
2023-04-16T04:18:15.872Z,217.78
2023-04-16T04:19:11.148Z,217.49
2023-04-16T04:20:05.983Z,217.63
2023-04-16T04:21:01.307Z,217.78
2023-04-16T04:21:56.106Z,218.21
2023-04-16T04:22:51.192Z,217.92
2023-04-16T04:23:46.255Z,218.65
2023-04-16T04:24:41.281Z,218.50
2023-04-16T04:25:36.328Z,218.36
2023-04-16T04:26:31.646Z,218.36
2023-04-16T04:27:26.434Z,220.26
2023-04-16T04:28:21.529Z,219.82
2023-04-16T04:29:16.619Z,220.41
2023-04-16T04:30:11.688Z,220.41
2023-04-16T04:31:06.933Z,221.15
2023-04-16T04:32:02.047Z,222.65
2023-04-16T04:32:56.914Z,223.72
2023-04-16T04:33:54.431Z,223.41
2023-04-16T04:34:49.511Z,222.65
2023-04-16T04:35:44.607Z,222.81
2023-04-16T04:36:39.735Z,223.11
2023-04-16T04:37:34.813Z,223.26
2023-04-16T04:38:30.017Z,221.75
2023-04-16T04:39:25.121Z,224.79
2023-04-16T04:40:20.225Z,223.72
2023-04-16T04:41:15.430Z,222.65
2023-04-16T04:42:10.343Z,223.41
2023-04-16T04:43:05.330Z,222.96
2023-04-16T04:44:00.343Z,222.50
2023-04-16T04:44:55.491Z,219.97
2023-04-16T04:45:50.510Z,220.26
2023-04-16T04:46:45.663Z,219.82
2023-04-16T04:47:40.710Z,216.91
2023-04-16T04:48:35.724Z,215.49
2023-04-16T04:49:30.724Z,213.39
2023-04-16T04:50:28.736Z,212.70
2023-04-16T04:51:23.732Z,211.87
2023-04-16T04:52:18.920Z,210.38
2023-04-16T04:53:14.132Z,210.65
2023-04-16T04:54:09.224Z,209.17
2023-04-16T04:55:04.239Z,208.51
2023-04-16T04:56:09.178Z,207.98
2023-04-16T04:56:55.370Z,210.51
2023-04-16T04:57:49.405Z,211.87
2023-04-16T04:58:44.397Z,212.83
2023-04-16T04:59:39.492Z,212.28
2023-04-16T05:00:34.704Z,212.15
2023-04-16T05:01:29.695Z,211.60
2023-04-16T05:02:24.837Z,212.70
2023-04-16T05:03:19.832Z,212.42
2023-04-16T05:04:14.796Z,210.92
2023-04-16T05:05:09.895Z,210.65
2023-04-16T05:06:04.985Z,211.74
2023-04-16T05:06:59.965Z,211.33
2023-04-16T05:07:54.983Z,210.51
2023-04-16T05:08:50.039Z,208.77
2023-04-16T05:09:45.248Z,207.85
2023-04-16T05:10:40.469Z,207.32
2023-04-16T05:11:35.379Z,208.77
2023-04-16T05:12:30.467Z,207.71
2023-04-16T05:13:25.500Z,207.85
2023-04-16T05:14:20.582Z,208.11
2023-04-16T05:15:15.619Z,208.24
2023-04-16T05:16:10.678Z,207.19
2023-04-16T05:17:05.861Z,207.71
2023-04-16T05:18:01.093Z,207.32
2023-04-16T05:18:56.055Z,207.32
2023-04-16T05:19:51.185Z,206.41
2023-04-16T05:20:46.128Z,206.41
2023-04-16T05:21:43.794Z,207.32
2023-04-16T05:22:38.825Z,206.41
2023-04-16T05:23:33.931Z,205.76
2023-04-16T05:24:28.971Z,206.54
2023-04-16T05:25:24.185Z,207.06
2023-04-16T05:26:19.140Z,208.90
2023-04-16T05:27:14.281Z,209.97
2023-04-16T05:28:09.207Z,209.30
2023-04-16T05:29:04.284Z,210.51
2023-04-16T05:29:59.523Z,211.33
2023-04-16T05:30:54.513Z,212.01
2023-04-16T05:31:49.451Z,212.83
2023-04-16T05:32:45.151Z,213.11
2023-04-16T05:33:40.348Z,213.67
2023-04-16T05:34:35.654Z,211.74
2023-04-16T05:35:31.483Z,211.19
2023-04-16T05:36:26.769Z,210.24
2023-04-16T05:37:22.559Z,209.04
2023-04-16T05:38:17.940Z,210.24
2023-04-16T05:39:13.214Z,210.24
2023-04-16T05:40:09.061Z,209.97
2023-04-16T05:41:04.328Z,211.46
2023-04-16T05:41:59.707Z,211.33
2023-04-16T05:42:55.927Z,212.42
2023-04-16T05:43:51.339Z,213.67
2023-04-16T05:44:47.153Z,214.36
2023-04-16T05:45:42.548Z,200.11
2023-04-16T05:46:37.858Z,196.52
2023-04-16T05:47:33.662Z,195.58
2023-04-16T05:48:28.870Z,196.52
2023-04-16T05:49:24.812Z,197.82
2023-04-16T05:50:20.247Z,199.02
2023-04-16T05:51:15.380Z,201.59
2023-04-16T05:52:11.216Z,202.84
2023-04-16T05:53:06.610Z,202.33
2023-04-16T05:54:02.103Z,201.84
2023-04-16T05:54:58.384Z,202.46
2023-04-16T05:55:53.490Z,202.96
2023-04-16T05:56:49.344Z,201.22
2023-04-16T05:57:44.731Z,199.02
2023-04-16T05:58:40.339Z,200.24
2023-04-16T05:59:35.955Z,201.34
2023-04-16T06:00:31.299Z,200.85
2023-04-16T06:01:27.016Z,196.05
2023-04-16T06:02:22.688Z,197.70
2023-04-16T06:03:18.101Z,201.22
2023-04-16T06:04:13.902Z,202.96
2023-04-16T06:05:09.100Z,200.36
2023-04-16T06:06:04.463Z,175.29
2023-04-16T06:07:00.685Z,166.21
2023-04-16T06:07:56.206Z,159.54
2023-04-16T06:08:51.863Z,158.63
2023-04-16T06:09:47.421Z,165.88
2023-04-16T06:10:42.586Z,170.46
2023-04-16T06:11:38.313Z,176.96
2023-04-16T06:12:33.623Z,179.43
2023-04-16T06:13:29.359Z,182.38
2023-04-16T06:14:24.787Z,185.21
2023-04-16T06:15:20.123Z,187.64
2023-04-16T06:16:15.879Z,192.82
2023-04-16T06:17:11.309Z,185.73
2023-04-16T06:18:06.882Z,173.47
2023-04-16T06:19:02.334Z,174.19
2023-04-16T06:19:58.162Z,178.67
2023-04-16T06:20:53.459Z,183.38
2023-04-16T06:21:48.992Z,186.15
2023-04-16T06:22:44.622Z,189.04
2023-04-16T06:23:40.026Z,191.36
2023-04-16T06:24:35.943Z,191.36
2023-04-16T06:25:31.105Z,189.92
2023-04-16T06:26:26.676Z,191.25
2023-04-16T06:27:22.286Z,194.65
2023-04-16T06:28:17.733Z,195.81
2023-04-16T06:29:13.077Z,196.28
2023-04-16T06:30:09.328Z,197.35
2023-04-16T06:31:04.807Z,196.28
2023-04-16T06:32:00.587Z,196.16
2023-04-16T06:32:55.878Z,195.93
2023-04-16T06:33:51.340Z,197.11
2023-04-16T06:34:47.070Z,196.99
2023-04-16T06:35:42.385Z,197.23
2023-04-16T06:36:37.800Z,196.99
2023-04-16T06:37:33.268Z,199.87
2023-04-16T06:38:28.602Z,199.99
2023-04-16T06:39:23.667Z,200.48
2023-04-16T06:40:18.664Z,200.85
2023-04-16T06:41:13.706Z,201.09
2023-04-16T06:42:08.748Z,201.59
2023-04-16T06:43:03.809Z,201.59
2023-04-16T06:43:58.832Z,203.59
2023-04-16T06:44:53.925Z,201.09
2023-04-16T06:45:48.928Z,200.11
2023-04-16T06:46:44.001Z,199.51
2023-04-16T06:47:39.087Z,198.30
2023-04-16T06:48:34.159Z,197.94
2023-04-16T06:49:29.179Z,196.16
2023-04-16T06:50:24.245Z,194.65
2023-04-16T06:51:19.281Z,190.14
2023-04-16T06:52:14.316Z,190.03
2023-04-16T06:53:09.363Z,185.94
2023-04-16T06:54:06.232Z,186.15
2023-04-16T06:55:01.248Z,186.04
2023-04-16T06:55:56.316Z,186.15
2023-04-16T06:56:51.358Z,186.15
2023-04-16T06:57:46.515Z,186.57
2023-04-16T06:58:41.519Z,189.37
2023-04-16T06:59:36.554Z,187.85
2023-04-16T07:00:31.721Z,190.25
2023-04-16T07:01:27.327Z,189.59
2023-04-16T07:02:22.828Z,187.85
2023-04-16T07:03:17.949Z,187.64
2023-04-16T07:04:13.113Z,187.96
2023-04-16T07:05:07.922Z,190.58
2023-04-16T07:06:04.654Z,191.58
2023-04-16T07:06:59.695Z,186.57
2023-04-16T07:07:54.836Z,188.07
2023-04-16T07:08:49.917Z,188.72
2023-04-16T07:09:44.913Z,187.96
2023-04-16T07:10:39.953Z,187.96
2023-04-16T07:11:34.991Z,185.10
2023-04-16T07:12:30.001Z,186.87
2023-04-16T07:13:25.200Z,185.83
2023-04-16T07:14:20.240Z,186.57
2023-04-16T07:15:15.321Z,186.57
2023-04-16T07:16:10.361Z,187.64
2023-04-16T07:17:05.386Z,186.24
2023-04-16T07:18:00.498Z,185.01
2023-04-16T07:18:55.591Z,182.78
2023-04-16T07:19:50.513Z,179.05
2023-04-16T07:20:45.590Z,179.43
2023-04-16T07:21:40.605Z,179.82
2023-04-16T07:22:35.681Z,177.53
2023-04-16T07:23:30.730Z,172.04
2023-04-16T07:24:25.887Z,172.21
2023-04-16T07:25:20.884Z,176.21
2023-04-16T07:26:15.952Z,175.66
2023-04-16T07:27:10.984Z,178.29
2023-04-16T07:28:06.053Z,178.86
2023-04-16T07:29:01.081Z,181.39
2023-04-16T07:29:56.115Z,181.58
2023-04-16T07:30:51.195Z,182.98
2023-04-16T07:31:46.385Z,185.42
2023-04-16T07:32:41.246Z,154.80
2023-04-16T07:33:36.307Z,117.93
2023-04-16T07:34:31.583Z,119.20
2023-04-16T07:35:27.091Z,129.96
2023-04-16T07:36:22.491Z,138.26
2023-04-16T07:37:17.926Z,149.93
2023-04-16T07:38:13.286Z,158.03
2023-04-16T07:39:09.024Z,163.60
2023-04-16T07:40:04.013Z,169.59
2023-04-16T07:40:59.357Z,173.47
2023-04-16T07:41:54.670Z,177.34
2023-04-16T07:42:49.999Z,179.43
2023-04-16T07:43:45.321Z,178.67
2023-04-16T07:44:40.782Z,180.02
2023-04-16T07:45:36.110Z,180.60
2023-04-16T07:46:45.435Z,180.99
2023-04-16T07:47:27.893Z,182.38
2023-04-16T07:48:22.429Z,184.19
2023-04-16T07:49:17.554Z,183.78
2023-04-16T07:50:13.149Z,183.58
2023-04-16T07:51:08.322Z,184.19
2023-04-16T07:52:03.797Z,184.39
2023-04-16T07:52:59.185Z,183.78
2023-04-16T07:53:54.744Z,185.41
2023-04-16T07:54:49.728Z,185.41
2023-04-16T07:55:44.800Z,187.53
2023-04-16T07:56:39.831Z,188.29
2023-04-16T07:57:34.962Z,189.59
2023-04-16T07:58:30.067Z,189.70
2023-04-16T07:59:25.332Z,189.70
2023-04-16T08:00:20.165Z,188.72
2023-04-16T08:01:15.412Z,189.70
2023-04-16T08:02:10.551Z,188.50
2023-04-16T08:03:05.937Z,188.94
2023-04-16T08:04:00.810Z,187.32
2023-04-16T08:04:55.931Z,184.99
2023-04-16T08:05:50.945Z,182.78
2023-04-16T08:06:46.043Z,181.78
2023-04-16T08:07:41.030Z,180.99
2023-04-16T08:08:36.588Z,180.99
2023-04-16T08:09:31.920Z,181.58
2023-04-16T08:10:27.387Z,183.38
2023-04-16T08:11:22.733Z,183.38
2023-04-16T08:12:18.407Z,182.78
2023-04-16T08:13:13.773Z,181.39
2023-04-16T08:14:09.096Z,183.58
2023-04-16T08:15:04.569Z,182.78
2023-04-16T08:15:59.762Z,181.39
2023-04-16T08:16:55.127Z,179.63
2023-04-16T08:17:50.646Z,181.19
2023-04-16T08:18:45.765Z,182.78
2023-04-16T08:19:41.204Z,178.86
2023-04-16T08:20:36.530Z,181.78
2023-04-16T08:21:31.960Z,180.99
2023-04-16T08:22:27.425Z,180.80
2023-04-16T08:23:22.763Z,181.98
2023-04-16T08:24:19.259Z,181.78
2023-04-16T08:25:14.731Z,182.38
2023-04-16T08:26:10.069Z,183.99
2023-04-16T08:28:02.130Z,184.99
2023-04-16T08:28:56.277Z,186.24
2023-04-16T08:29:51.623Z,184.19
2023-04-16T08:30:47.699Z,185.83
2023-04-16T08:31:43.131Z,185.31
2023-04-16T08:32:38.718Z,186.04
2023-04-16T08:33:34.076Z,186.87
2023-04-16T08:34:29.617Z,186.47
2023-04-16T08:35:24.956Z,187.21
2023-04-16T08:36:20.391Z,187.21
2023-04-16T08:37:15.774Z,187.85
2023-04-16T08:38:11.327Z,187.64
2023-04-16T08:39:06.563Z,187.96
2023-04-16T08:40:02.135Z,187.00
2023-04-16T08:40:57.126Z,184.89
2023-04-16T08:41:52.225Z,185.41
2023-04-16T08:42:47.547Z,187.75
2023-04-16T08:43:42.365Z,187.53
2023-04-16T08:44:37.409Z,187.85
2023-04-16T08:45:32.459Z,187.96
2023-04-16T08:46:27.548Z,188.18
2023-04-16T08:47:22.652Z,188.29
2023-04-16T08:48:17.577Z,188.50
2023-04-16T08:49:12.748Z,188.29
2023-04-16T08:50:07.621Z,189.26
2023-04-16T08:51:02.722Z,187.96
2023-04-16T08:51:57.738Z,185.10
2023-04-16T08:52:52.820Z,183.58
2023-04-16T08:53:50.167Z,183.78
2023-04-16T08:54:45.261Z,176.77
2023-04-16T08:55:40.230Z,179.43
2023-04-16T08:56:35.306Z,179.24
2023-04-16T08:57:30.430Z,181.98
2023-04-16T08:58:25.432Z,183.18
2023-04-16T08:59:20.361Z,182.58
2023-04-16T09:00:15.898Z,183.78
2023-04-16T09:01:11.234Z,184.60
2023-04-16T09:02:06.755Z,183.38
2023-04-16T09:03:02.336Z,185.01
2023-04-16T09:03:57.750Z,185.42
2023-04-16T09:04:52.941Z,185.52
2023-04-16T09:05:48.350Z,186.04
2023-04-16T09:06:43.736Z,184.99
2023-04-16T09:07:39.364Z,184.79
2023-04-16T09:08:34.555Z,185.62
2023-04-16T09:09:30.030Z,185.52
2023-04-16T09:10:25.037Z,181.58
2023-04-16T09:11:20.126Z,180.60
2023-04-16T09:12:15.259Z,179.63
2023-04-16T09:13:10.434Z,180.99
2023-04-16T09:14:05.422Z,180.21
2023-04-16T09:15:00.502Z,182.58
2023-04-16T09:15:55.566Z,182.98
2023-04-16T09:16:52.711Z,184.60
2023-04-16T09:17:47.830Z,184.80
2023-04-16T09:18:42.765Z,183.99
2023-04-16T09:19:37.796Z,184.60
2023-04-16T09:20:32.867Z,182.98
2023-04-16T09:21:27.887Z,179.82
2023-04-16T09:22:22.956Z,179.43
2023-04-16T09:23:18.185Z,177.72
2023-04-16T09:24:13.124Z,178.29
2023-04-16T09:25:08.187Z,178.67
2023-04-16T09:26:03.244Z,180.02
2023-04-16T09:26:58.214Z,179.82
2023-04-16T09:27:57.843Z,180.80
2023-04-16T09:28:52.702Z,180.21
2023-04-16T09:29:47.798Z,179.24
2023-04-16T09:30:42.765Z,180.21
2023-04-16T09:31:37.981Z,179.63
2023-04-16T09:32:32.926Z,180.60
2023-04-16T09:33:28.060Z,181.78
2023-04-16T09:34:23.171Z,183.78
2023-04-16T09:35:18.254Z,186.04
2023-04-16T09:36:13.284Z,186.15
2023-04-16T09:37:08.364Z,182.58
2023-04-16T09:38:03.608Z,182.58
2023-04-16T09:38:58.585Z,183.58
2023-04-16T09:39:57.830Z,185.01
2023-04-16T09:40:53.346Z,185.83
2023-04-16T09:41:48.768Z,186.89
2023-04-16T09:42:44.142Z,178.86
2023-04-16T09:43:39.767Z,182.78
2023-04-16T09:44:34.915Z,186.45
2023-04-16T09:45:30.285Z,188.50
2023-04-16T09:46:25.424Z,188.29
2023-04-16T09:47:20.416Z,187.96
2023-04-16T09:48:15.729Z,183.99
2023-04-16T09:49:10.786Z,183.78
2023-04-16T09:50:05.723Z,175.29
2023-04-16T09:51:00.693Z,170.28
2023-04-16T09:51:55.768Z,179.63
2023-04-16T09:52:50.998Z,184.89
2023-04-16T09:53:46.158Z,192.26
2023-04-16T09:54:41.094Z,195.12
2023-04-16T09:55:36.235Z,199.99
2023-04-16T09:56:31.300Z,203.34
2023-04-16T09:57:26.421Z,207.45
2023-04-16T09:58:21.421Z,207.71
2023-04-16T09:59:16.950Z,206.54
2023-04-16T10:00:12.318Z,207.32
2023-04-16T10:01:07.734Z,206.67
2023-04-16T10:02:15.424Z,207.06
2023-04-16T10:03:00.374Z,208.90
2023-04-16T10:03:54.643Z,211.60
2023-04-16T10:04:49.980Z,212.15
2023-04-16T10:05:45.499Z,214.36
2023-04-16T10:06:41.021Z,213.25
2023-04-16T10:07:36.352Z,212.70
2023-04-16T10:08:31.778Z,215.49
2023-04-16T10:09:27.153Z,216.06
2023-04-16T10:10:22.626Z,218.79
2023-04-16T10:11:17.829Z,216.63
2023-04-16T10:12:12.919Z,215.77
2023-04-16T10:13:07.845Z,219.67
2023-04-16T10:14:03.235Z,219.53
2023-04-16T10:14:58.140Z,222.20
2023-04-16T10:15:53.262Z,224.02
2023-04-16T10:16:48.395Z,224.18
2023-04-16T10:17:43.430Z,223.41
2023-04-16T10:18:40.718Z,222.05
2023-04-16T10:19:35.676Z,222.65
2023-04-16T10:20:30.815Z,220.86
2023-04-16T10:21:25.906Z,219.09
2023-04-16T10:22:20.961Z,207.06
2023-04-16T10:23:16.050Z,204.35
2023-04-16T10:24:11.148Z,203.09
2023-04-16T10:25:06.217Z,202.33
2023-04-16T10:26:01.267Z,200.97
2023-04-16T10:26:56.440Z,198.54
2023-04-16T10:27:51.381Z,199.26
2023-04-16T10:28:46.558Z,200.36
2023-04-16T10:29:41.527Z,197.94
2023-04-16T10:30:36.689Z,199.26
2023-04-16T10:31:31.853Z,198.90
2023-04-16T10:32:26.872Z,199.63
2023-04-16T10:33:21.865Z,199.99
2023-04-16T10:34:18.732Z,201.46
2023-04-16T10:35:14.223Z,202.84
2023-04-16T10:36:09.592Z,204.61
2023-04-16T10:37:04.920Z,207.85
2023-04-16T10:38:00.340Z,207.71
2023-04-16T10:38:55.529Z,206.02
2023-04-16T10:39:50.531Z,206.67
2023-04-16T10:40:45.522Z,201.96
2023-04-16T10:41:40.622Z,190.03
2023-04-16T10:42:42.530Z,186.79
2023-04-16T10:43:30.896Z,188.07
2023-04-16T10:44:25.865Z,187.43
2023-04-16T10:45:21.931Z,185.01
2023-04-16T10:46:17.369Z,184.39
2023-04-16T10:47:12.818Z,186.36
2023-04-16T10:48:08.101Z,191.25
2023-04-16T10:49:03.586Z,193.28
2023-04-16T10:49:58.928Z,192.82
2023-04-16T10:50:54.600Z,188.61
2023-04-16T10:51:49.980Z,186.68
2023-04-16T10:52:45.501Z,175.29
2023-04-16T10:53:41.014Z,182.18
2023-04-16T10:54:36.432Z,185.83
2023-04-16T10:55:31.739Z,190.80
2023-04-16T10:56:27.196Z,194.08
2023-04-16T10:57:22.532Z,193.05
2023-04-16T10:58:17.604Z,192.93
2023-04-16T10:59:13.028Z,194.65
2023-04-16T11:00:07.759Z,191.70
2023-04-16T11:01:02.810Z,190.25
2023-04-16T11:01:57.862Z,188.18
2023-04-16T11:02:52.869Z,187.32
2023-04-16T11:03:48.080Z,189.15
2023-04-16T11:04:42.977Z,189.04
2023-04-16T11:05:38.084Z,188.94
2023-04-16T11:06:33.102Z,189.04
2023-04-16T11:07:28.193Z,189.70
2023-04-16T11:08:24.693Z,193.39
2023-04-16T11:09:20.779Z,196.16
2023-04-16T11:10:15.905Z,200.36
2023-04-16T11:11:10.863Z,200.97
2023-04-16T11:12:05.974Z,201.46
2023-04-16T11:13:01.054Z,202.33
2023-04-16T11:13:56.199Z,203.21
2023-04-16T11:14:51.277Z,203.46
2023-04-16T11:15:46.482Z,202.09
2023-04-16T11:16:41.393Z,201.84
2023-04-16T11:17:36.655Z,199.02
2023-04-16T11:18:32.715Z,194.65
2023-04-16T11:19:28.245Z,188.50
2023-04-16T11:20:24.022Z,188.72
2023-04-16T11:21:19.470Z,189.04
2023-04-16T11:22:14.815Z,189.26
2023-04-16T11:23:10.631Z,186.47
2023-04-16T11:24:05.947Z,184.79
2023-04-16T11:25:01.832Z,187.21
2023-04-16T11:25:57.064Z,190.58
2023-04-16T11:26:52.527Z,191.47
2023-04-16T11:27:48.269Z,192.03
2023-04-16T11:28:43.850Z,191.58
2023-04-16T11:29:39.307Z,193.39
2023-04-16T11:30:35.627Z,194.54
2023-04-16T11:31:31.039Z,195.00